createdAt,value
2022-08-14T00:01:02.919Z,4.45
2022-08-14T00:03:37.788Z,4.68
2022-08-14T00:06:13.863Z,4.30
2022-08-14T00:08:51.415Z,4.40
2022-08-14T00:11:18.905Z,4.63
2022-08-14T00:13:52.824Z,4.97
2022-08-14T00:16:41.380Z,4.97
2022-08-14T00:19:19.121Z,4.93
2022-08-14T00:21:50.345Z,4.70
2022-08-14T00:24:28.402Z,4.95
2022-08-14T00:26:57.705Z,5.47
2022-08-14T00:29:30.701Z,5.03
2022-08-14T00:31:59.159Z,4.82
2022-08-14T00:34:37.688Z,4.68
2022-08-14T00:37:11.250Z,4.85
2022-08-14T00:39:38.839Z,4.80
2022-08-14T00:42:06.984Z,5.00
2022-08-14T00:44:48.057Z,4.97
2022-08-14T00:47:15.435Z,5.20
2022-08-14T00:49:43.119Z,4.88
2022-08-14T00:52:18.294Z,5.15
2022-08-14T00:54:46.552Z,5.97
2022-08-14T00:57:13.063Z,4.97
2022-08-14T00:59:40.580Z,5.38
2022-08-14T01:02:09.213Z,4.72
2022-08-14T01:04:51.417Z,5.10
2022-08-14T01:07:22.301Z,5.05
2022-08-14T01:09:57.953Z,5.43
2022-08-14T01:12:26.979Z,5.00
2022-08-14T01:14:59.928Z,5.45
2022-08-14T01:17:50.776Z,5.63
2022-08-14T01:20:39.640Z,5.05
2022-08-14T01:23:16.396Z,5.40
2022-08-14T01:25:47.545Z,5.00
2022-08-14T01:28:34.349Z,5.47
2022-08-14T01:31:00.542Z,5.82
2022-08-14T01:33:29.293Z,5.20
2022-08-14T01:36:04.579Z,5.53
2022-08-14T01:38:37.127Z,5.43
2022-08-14T01:41:14.824Z,5.45
2022-08-14T01:43:56.296Z,5.20
2022-08-14T01:46:24.843Z,5.30
2022-08-14T01:48:51.700Z,5.82
2022-08-14T01:51:22.185Z,5.70
2022-08-14T01:53:54.881Z,5.95
2022-08-14T01:56:32.673Z,5.70
2022-08-14T01:59:19.898Z,5.93
2022-08-14T02:01:59.111Z,6.00
2022-08-14T02:04:54.448Z,5.40
2022-08-14T02:07:34.554Z,5.57
2022-08-14T02:10:07.274Z,6.22
2022-08-14T02:12:33.372Z,5.88
2022-08-14T02:15:01.697Z,6.00
2022-08-14T02:17:28.867Z,5.88
2022-08-14T02:19:56.615Z,5.80
2022-08-14T02:22:28.662Z,6.10
2022-08-14T02:24:58.949Z,5.95
2022-08-14T02:28:25.655Z,6.18
2022-08-14T02:30:11.564Z,6.68
2022-08-14T02:32:39.755Z,6.80
2022-08-14T02:35:14.941Z,5.85
2022-08-14T02:37:48.228Z,5.85
2022-08-14T02:40:17.596Z,5.82
2022-08-14T02:42:55.203Z,5.95
2022-08-14T02:45:25.508Z,6.13
2022-08-14T02:48:10.375Z,5.80
2022-08-14T02:50:53.630Z,6.03
2022-08-14T02:53:19.609Z,6.20
2022-08-14T02:55:46.274Z,6.30
2022-08-14T02:58:12.503Z,6.40
2022-08-14T03:00:57.452Z,6.18
2022-08-14T03:03:24.067Z,6.80
2022-08-14T03:05:51.809Z,5.85
2022-08-14T03:08:20.957Z,6.35
2022-08-14T03:10:48.686Z,6.55
2022-08-14T03:13:20.975Z,6.57
2022-08-14T03:15:56.002Z,6.57
2022-08-14T03:18:31.865Z,6.20
2022-08-14T03:21:10.486Z,7.05
2022-08-14T03:23:37.976Z,5.90
2022-08-14T03:26:07.701Z,6.10
2022-08-14T03:28:33.777Z,6.35
2022-08-14T03:31:00.933Z,5.95
2022-08-14T03:33:28.298Z,6.82
2022-08-14T03:37:29.695Z,6.53
2022-08-14T03:39:15.820Z,5.97
2022-08-14T03:41:41.291Z,5.82
2022-08-14T03:45:25.748Z,6.32
2022-08-14T03:46:56.085Z,6.78
2022-08-14T03:49:24.334Z,6.55
2022-08-14T03:51:54.852Z,6.25
2022-08-14T03:54:20.804Z,6.40
2022-08-14T03:56:46.890Z,6.25
2022-08-14T03:59:17.661Z,6.97
2022-08-14T04:01:57.954Z,6.10
2022-08-14T04:04:29.185Z,6.38
2022-08-14T04:06:59.006Z,6.90
2022-08-14T04:09:26.683Z,6.82
2022-08-14T04:11:53.489Z,7.35
2022-08-14T04:14:19.561Z,7.40
2022-08-14T04:16:47.341Z,6.43
2022-08-14T04:19:16.648Z,6.63
2022-08-14T04:22:01.867Z,7.47
2022-08-14T04:24:28.597Z,6.35
2022-08-14T04:26:55.670Z,6.93
2022-08-14T04:29:21.516Z,6.53
2022-08-14T04:33:10.489Z,6.50
2022-08-14T04:34:34.455Z,6.78
2022-08-14T04:37:24.962Z,7.32
2022-08-14T04:40:11.958Z,6.97
2022-08-14T04:42:56.581Z,6.30
2022-08-14T04:45:23.725Z,5.68
2022-08-14T04:48:10.144Z,6.22
2022-08-14T04:50:44.058Z,6.13
2022-08-14T04:53:14.898Z,5.80
2022-08-14T04:55:44.299Z,5.68
2022-08-14T04:58:21.662Z,5.95
2022-08-14T05:00:58.697Z,5.70
2022-08-14T05:03:27.772Z,5.57
2022-08-14T05:05:57.895Z,6.53
2022-08-14T05:08:32.414Z,6.78
2022-08-14T05:11:11.974Z,5.78
2022-08-14T05:14:17.198Z,6.47
2022-08-14T05:16:28.556Z,6.30
2022-08-14T05:19:19.020Z,6.20
2022-08-14T05:22:00.376Z,6.00
2022-08-14T05:24:27.677Z,6.40
2022-08-14T05:26:53.749Z,5.95
2022-08-14T05:29:19.891Z,5.55
2022-08-14T05:31:45.829Z,5.45
2022-08-14T05:34:11.809Z,5.43
2022-08-14T05:36:37.816Z,5.85
2022-08-14T05:39:05.735Z,5.90
2022-08-14T05:41:53.577Z,6.95
2022-08-14T05:44:20.197Z,5.75
2022-08-14T05:46:46.031Z,5.85
2022-08-14T05:49:13.608Z,6.05
2022-08-14T05:51:40.462Z,6.10
2022-08-14T05:54:12.689Z,6.53
2022-08-14T05:56:39.952Z,6.68
2022-08-14T05:59:05.898Z,5.78
2022-08-14T06:01:33.684Z,6.22
2022-08-14T06:03:59.821Z,5.72
2022-08-14T06:06:26.192Z,5.65
2022-08-14T06:08:52.116Z,5.15
2022-08-14T06:11:23.934Z,6.63
2022-08-14T06:13:56.740Z,5.85
2022-08-14T06:16:22.731Z,5.50
2022-08-14T06:18:52.323Z,5.53
2022-08-14T06:21:20.535Z,5.80
2022-08-14T06:23:48.979Z,6.43
2022-08-14T06:26:15.063Z,5.63
2022-08-14T06:28:45.573Z,5.40
2022-08-14T06:31:11.601Z,5.43
2022-08-14T06:35:01.478Z,6.00
2022-08-14T06:36:23.999Z,5.63
2022-08-14T06:38:53.514Z,5.75
2022-08-14T06:41:20.715Z,5.97
2022-08-14T06:43:57.516Z,6.40
2022-08-14T06:46:34.244Z,6.50
2022-08-14T06:49:02.840Z,5.38
2022-08-14T06:51:38.518Z,5.90
2022-08-14T06:54:10.227Z,5.68
2022-08-14T06:56:36.130Z,5.65
2022-08-14T06:59:05.383Z,5.80
2022-08-14T07:01:50.822Z,5.65
2022-08-14T07:04:40.936Z,5.70
2022-08-14T07:07:06.820Z,5.55
2022-08-14T07:09:44.276Z,5.70
2022-08-14T07:12:54.088Z,5.25
2022-08-14T07:15:05.109Z,5.75
2022-08-14T07:17:32.149Z,6.20
2022-08-14T07:20:00.297Z,5.57
2022-08-14T07:22:33.099Z,5.13
2022-08-14T07:25:12.821Z,5.40
2022-08-14T07:27:40.764Z,5.22
2022-08-14T07:30:09.691Z,5.68
2022-08-14T07:32:55.542Z,5.20
2022-08-14T07:35:21.427Z,5.53
2022-08-14T07:37:49.510Z,5.97
2022-08-14T07:40:22.196Z,4.22
2022-08-14T07:42:53.796Z,5.28
2022-08-14T07:45:19.782Z,5.35
2022-08-14T07:47:48.487Z,5.40
2022-08-14T07:50:20.059Z,5.20
2022-08-14T07:52:47.568Z,4.75
2022-08-14T07:55:14.781Z,5.07
2022-08-14T07:57:47.647Z,4.93
2022-08-14T08:00:30.191Z,5.20
2022-08-14T08:03:00.269Z,5.20
2022-08-14T08:05:27.220Z,5.32
2022-08-14T08:07:53.917Z,5.18
2022-08-14T08:10:46.060Z,5.38
2022-08-14T08:13:16.735Z,5.13
2022-08-14T08:15:48.376Z,4.88
2022-08-14T08:18:20.533Z,4.85
2022-08-14T08:20:56.172Z,4.93
2022-08-14T08:23:40.054Z,5.45
2022-08-14T08:26:09.389Z,4.80
2022-08-14T08:28:35.458Z,4.90
2022-08-14T08:31:06.061Z,4.45
2022-08-14T08:33:37.611Z,4.80
2022-08-14T08:36:12.785Z,4.00
2022-08-14T08:39:17.791Z,4.50
2022-08-14T08:41:25.675Z,4.60
2022-08-14T08:43:53.236Z,5.20
2022-08-14T08:46:21.334Z,4.78
2022-08-14T08:51:33.419Z,4.43
2022-08-14T08:54:18.348Z,4.82
2022-08-14T08:56:49.525Z,5.47
2022-08-14T08:59:31.267Z,5.07
2022-08-14T09:02:10.177Z,4.05
2022-08-14T09:04:52.862Z,4.30
2022-08-14T09:07:25.092Z,4.20
2022-08-14T09:09:59.060Z,4.63
2022-08-14T09:12:31.494Z,4.75
2022-08-14T09:15:08.948Z,4.20
2022-08-14T09:17:38.866Z,4.07
2022-08-14T09:20:07.835Z,4.57
2022-08-14T09:22:44.957Z,4.30
2022-08-14T09:25:15.514Z,4.20
2022-08-14T09:27:41.518Z,4.45
2022-08-14T09:30:12.910Z,3.95
2022-08-14T09:33:06.033Z,4.18
2022-08-14T09:35:56.551Z,4.47
2022-08-14T09:38:46.820Z,3.60
2022-08-14T09:42:17.684Z,3.33
2022-08-14T09:44:38.355Z,3.30
2022-08-14T09:47:04.420Z,3.30
2022-08-14T09:49:34.301Z,3.83
2022-08-14T09:52:32.589Z,2.92
2022-08-14T09:54:59.497Z,3.15
2022-08-14T09:57:30.483Z,3.08
2022-08-14T09:59:57.641Z,3.00
2022-08-14T10:02:30.374Z,3.25
2022-08-14T10:05:10.714Z,3.47
2022-08-14T10:07:50.305Z,3.10
2022-08-14T10:10:38.043Z,3.78
2022-08-14T10:13:07.437Z,3.22
2022-08-14T10:15:45.191Z,3.15
2022-08-14T10:18:18.270Z,3.83
2022-08-14T10:20:56.856Z,3.15
2022-08-14T10:23:26.179Z,3.33
2022-08-14T10:26:22.830Z,3.42
2022-08-14T10:29:18.873Z,3.35
2022-08-14T10:31:45.044Z,3.38
2022-08-14T10:34:14.102Z,3.50
2022-08-14T10:36:50.219Z,3.13
2022-08-14T10:47:41.210Z,3.50
2022-08-14T10:50:00.529Z,3.33
2022-08-14T10:52:31.105Z,3.60
2022-08-14T10:55:08.842Z,3.10
2022-08-14T10:57:56.801Z,3.10
2022-08-14T11:00:29.813Z,4.10
2022-08-14T11:03:08.806Z,2.60
2022-08-14T11:05:48.710Z,2.42
2022-08-14T11:08:31.400Z,2.80
2022-08-14T11:11:00.842Z,2.65
2022-08-14T11:13:30.036Z,2.90
2022-08-14T11:16:01.373Z,2.90
2022-08-14T11:18:32.252Z,2.85
2022-08-14T11:21:06.169Z,2.60
2022-08-14T11:23:39.789Z,3.00
2022-08-14T11:26:08.164Z,2.50
2022-08-14T11:28:48.062Z,2.50
2022-08-14T11:31:19.109Z,2.28
2022-08-14T11:33:57.203Z,2.47
2022-08-14T11:36:35.340Z,2.20
2022-08-14T11:39:22.862Z,2.42
2022-08-14T11:44:45.624Z,2.83
2022-08-14T11:47:18.797Z,2.22
2022-08-14T11:49:48.971Z,2.40
2022-08-14T11:52:18.637Z,2.58
2022-08-14T11:54:46.176Z,2.63
2022-08-14T11:57:18.774Z,2.83
2022-08-14T11:59:45.319Z,2.45
2022-08-14T12:03:00.706Z,2.08
2022-08-14T12:05:04.067Z,2.50
2022-08-14T12:07:30.655Z,2.65
2022-08-14T12:09:58.639Z,2.60
2022-08-14T12:12:35.772Z,2.38
2022-08-14T12:15:04.743Z,2.22
2022-08-14T12:17:47.460Z,2.67
2022-08-14T12:20:15.787Z,2.42
2022-08-14T12:22:56.660Z,2.50
2022-08-14T12:25:24.991Z,2.10
2022-08-14T12:27:54.540Z,2.72
2022-08-14T12:30:43.259Z,2.53
2022-08-14T12:33:25.615Z,2.25
2022-08-14T12:35:56.429Z,2.15
2022-08-14T12:38:40.858Z,2.42
2022-08-14T12:41:20.454Z,2.13
2022-08-14T12:43:56.650Z,2.10
2022-08-14T12:46:46.699Z,2.47
2022-08-14T12:49:17.982Z,2.28
2022-08-14T12:51:56.097Z,1.95
2022-08-14T12:54:28.141Z,1.75
2022-08-14T12:57:19.323Z,1.88
2022-08-14T12:59:46.895Z,2.00
2022-08-14T13:02:26.028Z,2.33
2022-08-14T13:04:54.840Z,1.90
2022-08-14T13:07:21.148Z,1.98
2022-08-14T13:09:53.614Z,2.42
2022-08-14T13:12:32.632Z,2.03
2022-08-14T13:15:02.335Z,1.95
2022-08-14T13:17:51.417Z,2.03
2022-08-14T13:20:23.518Z,2.25
2022-08-14T13:22:54.226Z,2.40
2022-08-14T13:25:24.520Z,1.77
2022-08-14T13:27:54.570Z,2.08
2022-08-14T13:30:24.330Z,1.92
2022-08-14T13:32:54.650Z,2.28
2022-08-14T13:35:24.556Z,2.17
2022-08-14T13:37:52.208Z,1.98
2022-08-14T13:40:22.034Z,1.90
2022-08-14T13:42:54.552Z,2.00
2022-08-14T13:45:22.487Z,1.92
2022-08-14T13:47:49.424Z,2.10
2022-08-14T13:50:20.705Z,1.90
2022-08-14T13:52:54.810Z,2.25
2022-08-14T13:55:24.136Z,2.17
2022-08-14T13:58:02.907Z,1.92
2022-08-14T14:00:51.572Z,2.17
2022-08-14T14:03:21.749Z,2.22
2022-08-14T14:05:54.401Z,2.20
2022-08-14T14:08:45.775Z,2.17
2022-08-14T14:11:09.186Z,1.90
2022-08-14T14:13:36.270Z,2.30
2022-08-14T14:16:03.970Z,2.10
2022-08-14T14:18:34.708Z,2.42
2022-08-14T14:21:02.788Z,1.70
2022-08-14T14:23:30.422Z,2.00
2022-08-14T14:25:59.002Z,2.10
2022-08-14T14:28:33.394Z,2.15
2022-08-14T14:31:06.706Z,2.38
2022-08-14T14:33:50.115Z,2.10
2022-08-14T14:36:24.260Z,1.92
2022-08-14T14:38:55.997Z,2.10
2022-08-14T14:41:24.091Z,1.90
2022-08-14T14:43:51.582Z,1.88
2022-08-14T14:46:19.691Z,1.63
2022-08-14T14:48:46.587Z,1.60
2022-08-14T14:53:47.023Z,1.70
2022-08-14T14:56:50.220Z,1.70
2022-08-14T14:58:59.460Z,1.70
2022-08-14T15:01:26.842Z,1.60
2022-08-14T15:03:53.913Z,1.92
2022-08-14T15:06:21.946Z,1.85
2022-08-14T15:08:59.819Z,2.17
2022-08-14T15:11:26.605Z,2.13
2022-08-14T15:13:56.874Z,1.90
2022-08-14T15:16:22.936Z,1.83
2022-08-14T15:18:50.812Z,1.90
2022-08-14T15:21:19.285Z,1.70
2022-08-14T15:23:47.298Z,1.73
2022-08-14T15:26:24.056Z,2.25
2022-08-14T15:29:03.183Z,2.22
2022-08-14T15:31:31.933Z,1.77
2022-08-14T15:34:45.605Z,2.20
2022-08-14T15:37:01.441Z,1.90
2022-08-14T15:39:29.523Z,1.83
2022-08-14T15:42:01.174Z,1.95
2022-08-14T15:44:33.988Z,1.90
2022-08-14T15:47:06.152Z,1.40
2022-08-14T15:49:34.833Z,1.83
2022-08-14T15:52:03.992Z,2.13
2022-08-14T15:54:31.219Z,2.00
2022-08-14T15:57:08.574Z,2.10
2022-08-14T15:59:54.445Z,2.17
2022-08-14T16:02:24.462Z,1.88
2022-08-14T16:04:53.699Z,2.15
2022-08-14T16:07:22.042Z,1.92
2022-08-14T16:10:11.897Z,1.98
2022-08-14T16:12:41.868Z,2.33
2022-08-14T16:15:12.695Z,2.20
2022-08-14T16:17:44.119Z,2.00
2022-08-14T16:20:11.761Z,1.88
2022-08-14T16:22:57.705Z,2.00
2022-08-14T16:25:34.594Z,1.85
2022-08-14T16:28:02.773Z,2.13
2022-08-14T16:30:33.545Z,1.70
2022-08-14T16:33:04.019Z,2.20
2022-08-14T16:35:42.801Z,1.95
2022-08-14T16:38:46.062Z,2.10
2022-08-14T16:41:22.263Z,2.17
2022-08-14T16:43:52.379Z,2.20
2022-08-14T16:46:22.086Z,2.15
2022-08-14T16:48:54.972Z,2.15
2022-08-14T16:51:23.824Z,1.88
2022-08-14T16:53:49.768Z,2.00
2022-08-14T16:56:25.383Z,2.10
2022-08-14T16:59:15.290Z,2.10
2022-08-14T17:01:58.499Z,1.88
2022-08-14T17:04:29.659Z,2.20
2022-08-14T17:06:58.432Z,2.05
2022-08-14T17:09:32.317Z,1.90
2022-08-14T17:12:00.112Z,1.88
2022-08-14T17:15:19.830Z,2.00
2022-08-14T17:17:49.872Z,1.95
2022-08-14T17:20:53.294Z,1.77
2022-08-14T17:23:10.761Z,1.90
2022-08-14T17:25:37.799Z,2.10
2022-08-14T17:28:52.274Z,1.80
2022-08-14T17:31:02.724Z,2.35
2022-08-14T17:36:22.746Z,1.95
2022-08-14T17:39:11.951Z,1.98
2022-08-14T17:42:02.969Z,1.90
2022-08-14T17:44:34.144Z,2.13
2022-08-14T17:47:13.000Z,2.47
2022-08-14T17:49:52.183Z,2.13
2022-08-14T17:52:34.433Z,1.80
2022-08-14T17:55:05.228Z,1.90
2022-08-14T17:57:35.534Z,2.13
2022-08-14T18:00:13.038Z,2.00
2022-08-14T18:02:50.402Z,1.80
2022-08-14T18:05:17.538Z,2.30
2022-08-14T18:08:33.227Z,2.00
2022-08-14T18:10:54.968Z,1.83
2022-08-14T18:13:52.082Z,2.05
2022-08-14T18:16:19.758Z,2.22
2022-08-14T18:18:48.204Z,1.98
2022-08-14T18:21:39.924Z,1.80
2022-08-14T18:24:00.595Z,2.10
2022-08-14T18:26:36.826Z,2.13
2022-08-14T18:29:15.050Z,2.33
2022-08-14T18:31:43.510Z,2.10
2022-08-14T18:34:13.764Z,2.47
2022-08-14T18:37:09.469Z,2.33
2022-08-14T18:40:03.611Z,1.90
2022-08-14T18:42:33.204Z,2.25
2022-08-14T18:45:01.308Z,2.40
2022-08-14T18:47:28.798Z,2.13
2022-08-14T18:50:26.819Z,2.05
2022-08-14T18:52:53.140Z,2.65
2022-08-14T18:55:20.844Z,2.42
2022-08-14T18:58:24.504Z,2.80
2022-08-14T19:00:54.344Z,2.40
2022-08-14T19:03:36.534Z,2.58
2022-08-14T19:06:05.551Z,3.30
2022-08-14T19:08:39.772Z,3.95
2022-08-14T19:11:39.097Z,2.50
2022-08-14T19:14:07.200Z,2.50
2022-08-14T19:16:36.116Z,2.65
2022-08-14T19:19:06.081Z,3.30
2022-08-14T19:21:42.884Z,2.75
2022-08-14T19:24:29.184Z,2.45
2022-08-14T19:27:23.665Z,2.83
2022-08-14T19:29:51.698Z,2.60
2022-08-14T19:32:38.389Z,2.45
2022-08-14T19:35:14.974Z,2.75
2022-08-14T19:37:46.739Z,2.70
2022-08-14T19:40:39.211Z,2.35
2022-08-14T19:43:08.959Z,2.63
2022-08-14T19:45:37.195Z,2.67
2022-08-14T19:48:11.684Z,2.72
2022-08-14T19:50:41.236Z,2.97
2022-08-14T19:53:17.510Z,2.65
2022-08-14T19:55:56.691Z,2.60
2022-08-14T19:58:30.012Z,2.53
2022-08-14T20:00:56.377Z,2.42
2022-08-14T20:03:24.606Z,2.38
2022-08-14T20:06:02.469Z,2.47
2022-08-14T20:11:00.995Z,2.92
2022-08-14T20:11:43.412Z,2.45
2022-08-14T20:14:20.867Z,2.10
2022-08-14T20:16:54.743Z,2.60
2022-08-14T20:19:28.839Z,2.65
2022-08-14T20:22:34.644Z,2.70
2022-08-14T20:24:50.004Z,2.67
2022-08-14T20:27:37.660Z,2.35
2022-08-14T20:30:28.801Z,2.20
2022-08-14T20:32:56.510Z,2.65
2022-08-14T20:35:26.758Z,2.40
2022-08-14T20:38:30.715Z,2.35
2022-08-14T20:40:56.257Z,2.67
2022-08-14T20:43:42.008Z,2.45
2022-08-14T20:46:24.095Z,2.15
2022-08-14T20:48:59.944Z,2.80
2022-08-14T20:51:59.370Z,2.20
2022-08-14T20:54:33.979Z,2.67
2022-08-14T20:57:10.748Z,2.60
2022-08-14T20:59:43.496Z,2.42
2022-08-14T21:02:30.459Z,2.72
2022-08-14T21:05:16.372Z,3.25
2022-08-14T21:07:44.565Z,2.92
2022-08-14T21:10:33.011Z,2.40
2022-08-14T21:14:18.689Z,2.45
2022-08-14T21:15:57.345Z,2.80
2022-08-14T21:18:47.387Z,2.40
2022-08-14T21:21:17.710Z,2.60
2022-08-14T21:23:55.324Z,2.78
2022-08-14T21:26:50.521Z,2.70
2022-08-14T21:29:11.282Z,2.67
2022-08-14T21:31:39.411Z,2.97
2022-08-14T21:34:31.588Z,2.47
2022-08-14T21:36:53.764Z,2.65
2022-08-14T21:39:21.515Z,2.80
2022-08-14T21:41:59.002Z,2.72
2022-08-14T21:47:11.574Z,3.58
2022-08-14T21:49:40.162Z,2.90
2022-08-14T21:52:51.987Z,3.20
2022-08-14T21:55:09.243Z,3.15
2022-08-14T21:58:05.475Z,3.42
2022-08-14T22:00:34.679Z,3.50
2022-08-14T22:03:02.644Z,3.80
2022-08-14T22:05:29.417Z,3.65
2022-08-14T22:07:55.998Z,3.80
2022-08-14T22:10:22.762Z,3.67
2022-08-14T22:13:00.976Z,3.42
2022-08-14T22:15:28.220Z,3.47
2022-08-14T22:17:54.926Z,3.53
2022-08-14T22:20:22.113Z,4.10
2022-08-14T22:22:48.639Z,3.92
2022-08-14T22:25:22.109Z,3.38
2022-08-14T22:28:00.713Z,4.00
2022-08-14T22:30:26.764Z,4.05
2022-08-14T22:32:57.338Z,3.85
2022-08-14T22:35:25.010Z,3.90
2022-08-14T22:38:36.125Z,4.00
2022-08-14T22:41:01.807Z,4.15
2022-08-14T22:43:26.842Z,4.25
2022-08-14T22:45:55.496Z,4.10
2022-08-14T22:48:22.053Z,3.92
2022-08-14T22:50:53.329Z,4.28
2022-08-14T22:53:20.856Z,4.05
2022-08-14T22:55:47.750Z,4.20
2022-08-14T22:58:31.349Z,4.43
2022-08-14T23:01:00.295Z,4.85
2022-08-14T23:03:26.291Z,4.70
2022-08-14T23:05:54.532Z,4.30
2022-08-14T23:08:57.755Z,4.60
2022-08-14T23:11:09.533Z,4.75
2022-08-14T23:13:38.996Z,4.20
2022-08-14T23:16:06.107Z,4.43
2022-08-14T23:18:32.145Z,4.38
2022-08-14T23:20:58.012Z,4.25
2022-08-14T23:23:23.890Z,4.60
2022-08-14T23:25:59.299Z,4.65
2022-08-14T23:28:56.831Z,3.90
2022-08-14T23:31:34.894Z,4.50
2022-08-14T23:34:07.973Z,4.65
2022-08-14T23:36:37.976Z,4.93
2022-08-14T23:39:19.437Z,4.07
2022-08-14T23:41:52.610Z,4.43
2022-08-14T23:44:22.646Z,4.85
2022-08-14T23:46:52.668Z,4.25
2022-08-14T23:49:27.942Z,4.32
2022-08-14T23:52:56.013Z,4.57
2022-08-14T23:55:01.148Z,4.95
2022-08-14T23:57:28.689Z,4.82
2022-08-14T23:59:56.656Z,4.60
